Portada
METAR-TAF:

METAR-TAF

Aeroports :

Wanaham

Lifou, Nova Caledònia

latitud: 20-46S, longitud: 167-14E, altitud: 28 m

METAR: manca

Hora: 23:32 (12:32 UTC)

Pronòstic

L'informe es va fer fa 1 hora i 32 minuts, a les 11:00 UTC
Pronòstic vàlid del 25 a les 12 UTC al 26 a les 12 UTC
Vent 2 kt amb direcció variable
Visibilitat 10 km o més
Escasses núvols a una alçada de 3000 ft
Cel ennuvolat a una alçada de 5500 ft
Temporalment
l' 25 a les 12 UTC al 25 a les 18 UTC
Cel ennuvolat a una alçada de 1400 ft
xàfecs de pluja
Evolucionant progressivament
l' 25 a les 18 UTC al 25 a les 21 UTC
Vent 10 kt del Est/Sud-Est
Probabilitat 40% :
Temporalment
l' 26 a les 03 UTC al 26 a les 06 UTC
xàfecs de pluja

TAF: NWWL 251100Z 2512/2612 VRB02KT 9999 FEW030 BKN055 TEMPO 2512/2518 SHRA BKN014 BECMG 2518/2521 12010KT PROB40 TEMPO 2603/2606 SHRA

Observacions i pronòstics meteorològics de més de 4000 aeroports (METAR i TAF).

Les estacions disponibles són els punts grocs i vermells al mapa.

Posi el ratolí al punt desitjat per veure el nom de l'estació.

Feu clic per veure les observacions i els pronòstics meteorològics.

Per canviar el mapa: feu clic els botons verds amb una creu de color negre per apropar; al botó verd amb un guió per allunyar la imatge; o en les fletxes verdes per a mapes adjacents.


METAR-TAF: